Time;durP1;ratioP1;P1;durP2;ratioP2;P2;SDS_P1;SDS_P2;PMS_P1;PMS_P2;Temp;Humidity;BMP_temperature;BMP_pressure;BME280_temperature;BME280_humidity;BME280_pressure;Samples;Min_cycle;Max_cycle;Signal;HPM_P1;HPM_P2
2022/08/29 00:01:39;;;;;;;2.75;1.38;;;16.80;99.90;;;;;;5014980;28;20050;-69
2022/08/29 00:04:04;;;;;;;6.57;2.08;;;16.70;99.90;;;;;;5015240;28;20034;-69
2022/08/29 00:06:30;;;;;;;11.88;1.60;;;16.80;99.90;;;;;;5015023;28;20033;-68
2022/08/29 00:08:56;;;;;;;2.53;1.33;;;16.60;99.90;;;;;;5014095;28;20030;-70
2022/08/29 00:11:22;;;;;;;6.53;1.63;;;16.80;99.90;;;;;;5014417;28;20046;-69
2022/08/29 00:13:48;;;;;;;3.42;1.23;;;16.70;99.90;;;;;;5014397;28;20030;-72
2022/08/29 00:16:14;;;;;;;9.43;2.00;;;16.70;99.90;;;;;;5015363;28;20209;-70
2022/08/29 00:18:40;;;;;;;4.38;1.23;;;16.70;99.90;;;;;;5014911;28;20030;-70
2022/08/29 00:21:06;;;;;;;3.17;1.25;;;16.70;99.90;;;;;;5014655;28;20037;-70
2022/08/29 00:23:32;;;;;;;3.25;1.38;;;16.70;99.90;;;;;;5014514;28;20034;-73
2022/08/29 00:25:58;;;;;;;1.58;0.98;;;16.60;99.90;;;;;;5014375;28;20026;-70
2022/08/29 00:28:24;;;;;;;7.22;1.92;;;16.60;99.90;;;;;;5014746;28;20164;-69
2022/08/29 00:30:49;;;;;;;3.95;1.35;;;16.60;99.90;;;;;;5014610;28;20053;-71
2022/08/29 00:33:17;;;;;;;10.45;2.03;;;16.60;99.90;;;;;;5014848;28;20037;-71
2022/08/29 00:35:44;;;;;;;3.00;1.15;;;16.50;99.90;;;;;;5014251;28;20046;-69
2022/08/29 00:38:13;;;;;;;1.90;1.13;;;16.40;99.90;;;;;;5014246;28;20104;-71
2022/08/29 00:40:43;;;;;;;11.70;2.08;;;16.40;99.90;;;;;;5014247;28;20034;-69
2022/08/29 00:43:09;;;;;;;9.80;1.35;;;16.40;99.90;;;;;;5014450;28;20147;-73
2022/08/29 00:45:39;;;;;;;4.40;1.80;;;16.30;99.90;;;;;;5014578;28;20557;-70
2022/08/29 00:48:10;;;;;;;4.68;1.75;;;16.30;99.90;;;;;;5014012;28;20030;-70
2022/08/29 00:51:01;;;;;;;1.50;1.08;;;16.30;99.90;;;;;;5014773;28;20052;-70
2022/08/29 00:53:33;;;;;;;2.47;1.25;;;16.20;99.90;;;;;;5004295;28;20026;-71
2022/08/29 00:56:01;;;;;;;4.47;1.67;;;16.20;99.90;;;;;;5013909;28;20537;-69
2022/08/29 00:58:50;;;;;;;4.90;1.45;;;16.10;99.90;;;;;;5013776;28;20033;-69
2022/08/29 01:01:18;;;;;;;8.00;2.00;;;16.10;99.90;;;;;;5013643;28;20096;-70
2022/08/29 01:03:44;;;;;;;11.25;1.23;;;16.00;99.90;;;;;;5009624;28;20449;-70
2022/08/29 01:06:12;;;;;;;3.20;1.73;;;16.00;99.90;;;;;;5013609;28;20044;-70
2022/08/29 01:08:38;;;;;;;4.07;1.45;;;15.90;99.90;;;;;;5013003;28;20038;-70
2022/08/29 01:13:50;;;;;;;6.43;1.52;;;15.90;99.90;;;;;;5014205;28;20073;-70
2022/08/29 01:16:18;;;;;;;6.30;1.67;;;15.90;99.90;;;;;;5014387;28;20033;-71
2022/08/29 01:18:47;;;;;;;7.13;1.20;;;15.80;99.90;;;;;;5011602;28;20053;-71
2022/08/29 01:21:34;;;;;;;3.03;1.52;;;15.80;99.90;;;;;;5012289;28;20030;-69
2022/08/29 01:24:15;;;;;;;5.15;1.92;;;15.80;99.90;;;;;;5012867;28;20050;-69
2022/08/29 01:26:43;;;;;;;4.00;1.23;;;15.80;99.90;;;;;;5013700;28;20053;-70
2022/08/29 01:29:09;;;;;;;13.80;1.55;;;15.80;99.90;;;;;;5013342;28;20132;-73
2022/08/29 01:31:47;;;;;;;3.60;1.65;;;15.80;99.90;;;;;;5011488;28;20068;-70
2022/08/29 01:34:15;;;;;;;8.20;2.13;;;15.80;99.90;;;;;;5013462;28;20046;-72
2022/08/29 01:36:55;;;;;;;5.53;2.03;;;15.80;99.90;;;;;;5013118;28;20030;-71
2022/08/29 01:39:27;;;;;;;3.50;1.52;;;15.80;99.90;;;;;;5013066;28;20029;-70
2022/08/29 01:41:55;;;;;;;13.77;2.28;;;15.90;99.90;;;;;;5013269;28;20029;-69
2022/08/29 01:44:24;;;;;;;15.18;1.98;;;15.90;99.90;;;;;;5012815;28;20073;-71
2022/08/29 01:46:53;;;;;;;15.02;1.98;;;15.80;99.90;;;;;;5013435;28;20030;-70
2022/08/29 01:49:20;;;;;;;3.00;1.58;;;15.70;99.90;;;;;;5013122;28;20019;-70
2022/08/29 01:51:46;;;;;;;4.43;1.73;;;15.70;99.90;;;;;;5013532;28;20863;-70
2022/08/29 01:54:13;;;;;;;7.82;1.85;;;15.70;99.90;;;;;;5013102;28;20034;-71
2022/08/29 01:56:44;;;;;;;8.73;2.55;;;15.70;99.90;;;;;;5012821;28;20018;-74
2022/08/29 01:59:13;;;;;;;6.43;2.53;;;15.70;99.90;;;;;;5012638;28;20058;-69
2022/08/29 02:01:42;;;;;;;10.98;2.30;;;15.70;99.90;;;;;;5012463;28;20026;-70
2022/08/29 02:04:08;;;;;;;4.03;1.75;;;15.70;99.90;;;;;;5012486;28;20046;-69
2022/08/29 02:06:35;;;;;;;6.25;2.30;;;15.70;99.90;;;;;;5012965;28;20422;-70
2022/08/29 02:09:02;;;;;;;8.75;2.58;;;15.80;99.90;;;;;;5012612;28;20082;-71
2022/08/29 02:11:27;;;;;;;3.83;1.85;;;15.80;99.90;;;;;;5012442;28;20038;-71
2022/08/29 02:13:56;;;;;;;5.13;1.92;;;15.80;99.90;;;;;;5012607;28;20033;-71
2022/08/29 02:16:26;;;;;;;3.53;1.92;;;15.80;99.90;;;;;;5012565;28;20034;-74
2022/08/29 02:18:53;;;;;;;3.42;1.95;;;15.90;99.90;;;;;;5012717;28;20050;-70
2022/08/29 02:21:22;;;;;;;6.18;2.85;;;15.90;99.90;;;;;;5012482;28;20027;-70
2022/08/29 02:23:49;;;;;;;5.68;1.63;;;15.90;99.90;;;;;;5011918;28;20058;-71
2022/08/29 02:26:17;;;;;;;3.20;1.88;;;15.90;99.90;;;;;;5011730;28;20164;-71
2022/08/29 02:28:43;;;;;;;5.53;2.03;;;15.90;99.90;;;;;;5012867;28;20041;-70
2022/08/29 02:31:09;;;;;;;5.43;2.08;;;15.90;99.90;;;;;;5012034;28;20027;-75
2022/08/29 02:33:36;;;;;;;5.65;2.05;;;15.80;99.90;;;;;;5011106;28;20041;-70
2022/08/29 02:36:03;;;;;;;9.43;2.15;;;15.80;99.90;;;;;;5012112;28;20032;-71
2022/08/29 02:38:29;;;;;;;6.32;2.00;;;15.80;99.90;;;;;;5011528;28;20383;-71
2022/08/29 02:40:55;;;;;;;1.65;1.08;;;15.80;99.90;;;;;;5012321;28;20030;-70
2022/08/29 02:43:22;;;;;;;20.67;2.92;;;15.70;99.90;;;;;;5011939;28;20140;-67
2022/08/29 02:45:49;;;;;;;12.65;2.50;;;15.70;99.90;;;;;;5010693;28;20074;-74
2022/08/29 02:48:15;;;;;;;7.22;2.47;;;15.70;99.90;;;;;;5012733;28;20104;-70
2022/08/29 02:50:44;;;;;;;3.50;1.40;;;15.70;99.90;;;;;;5012192;28;20060;-72
2022/08/29 02:53:11;;;;;;;6.32;2.08;;;15.70;99.90;;;;;;5012260;28;20466;-70
2022/08/29 02:55:37;;;;;;;3.00;1.55;;;15.70;99.90;;;;;;5012145;28;20041;-70
2022/08/29 02:58:03;;;;;;;8.80;2.10;;;15.70;99.90;;;;;;5012004;28;20036;-70
2022/08/29 03:00:29;;;;;;;9.00;2.83;;;15.70;99.90;;;;;;5012089;28;20049;-71
2022/08/29 03:02:56;;;;;;;16.08;2.28;;;15.70;99.90;;;;;;5011907;28;20070;-71
2022/08/29 03:05:27;;;;;;;7.50;2.10;;;15.70;99.90;;;;;;5011793;28;20034;-70
2022/08/29 03:07:55;;;;;;;9.05;2.03;;;15.70;99.90;;;;;;4994031;28;20026;-70
2022/08/29 03:10:21;;;;;;;13.25;2.55;;;15.70;99.90;;;;;;5011304;28;20055;-71
2022/08/29 03:12:47;;;;;;;7.55;2.65;;;15.70;99.90;;;;;;5009371;28;20061;-71
2022/08/29 03:15:14;;;;;;;16.33;3.05;;;15.70;99.90;;;;;;5012135;28;20038;-69
2022/08/29 03:17:40;;;;;;;17.10;2.72;;;15.70;99.90;;;;;;5011670;28;20026;-70
2022/08/29 03:20:07;;;;;;;9.57;2.75;;;15.70;99.90;;;;;;5011510;28;20588;-69
2022/08/29 03:22:33;;;;;;;7.30;2.60;;;15.70;99.90;;;;;;5011755;28;20029;-70
2022/08/29 03:25:03;;;;;;;15.23;3.38;;;15.60;99.90;;;;;;5010858;28;20023;-70
2022/08/29 03:27:33;;;;;;;9.52;2.88;;;15.70;99.90;;;;;;5013051;28;20030;-71
2022/08/29 03:29:58;;;;;;;4.90;2.45;;;15.60;99.90;;;;;;5016193;28;20072;-71
2022/08/29 03:32:25;;;;;;;8.43;2.75;;;15.60;99.90;;;;;;5015837;28;20023;-70
2022/08/29 03:34:53;;;;;;;10.93;2.55;;;15.70;99.90;;;;;;5013990;28;20037;-70
2022/08/29 03:37:19;;;;;;;12.20;2.90;;;15.70;99.90;;;;;;5015789;28;20371;-70
2022/08/29 03:39:44;;;;;;;8.98;2.45;;;15.70;99.90;;;;;;5015613;28;20099;-71
2022/08/29 03:42:10;;;;;;;6.10;2.67;;;15.70;99.90;;;;;;5015582;28;20487;-70
2022/08/29 03:44:38;;;;;;;13.55;3.40;;;15.70;99.90;;;;;;5015729;28;20030;-70
2022/08/29 03:47:04;;;;;;;4.40;2.60;;;15.60;99.90;;;;;;5014826;28;20046;-69
2022/08/29 03:49:30;;;;;;;4.75;2.17;;;15.70;99.90;;;;;;5015195;28;20027;-70
2022/08/29 03:51:55;;;;;;;6.07;2.55;;;15.70;99.90;;;;;;5015473;28;20081;-70
2022/08/29 03:54:21;;;;;;;30.88;3.35;;;15.80;99.90;;;;;;5015042;28;20030;-70
2022/08/29 03:56:48;;;;;;;9.85;1.73;;;15.70;99.90;;;;;;5015854;28;20038;-70
2022/08/29 03:59:15;;;;;;;24.23;3.47;;;15.70;99.90;;;;;;5015379;28;20030;-71
2022/08/29 04:01:40;;;;;;;7.10;3.50;;;15.70;99.90;;;;;;5015088;28;20018;-71
2022/08/29 04:04:06;;;;;;;4.50;2.17;;;15.70;99.90;;;;;;5014876;28;20088;-69
2022/08/29 04:06:34;;;;;;;11.15;2.70;;;15.70;99.90;;;;;;5015084;28;20029;-71
2022/08/29 04:09:00;;;;;;;11.77;3.33;;;15.70;99.90;;;;;;5015034;28;20030;-71
2022/08/29 04:11:27;;;;;;;21.35;2.13;;;15.70;99.90;;;;;;5014889;28;20074;-70
2022/08/29 04:13:53;;;;;;;8.48;2.90;;;15.80;99.90;;;;;;5014889;28;20041;-70
2022/08/29 04:16:26;;;;;;;7.25;2.97;;;15.70;99.90;;;;;;5015094;28;20018;-70
2022/08/29 04:18:52;;;;;;;7.15;3.35;;;15.70;99.90;;;;;;5015449;28;20034;-71
2022/08/29 04:21:18;;;;;;;6.15;2.88;;;15.70;99.90;;;;;;5014897;28;20018;-68
2022/08/29 04:23:47;;;;;;;14.63;3.88;;;15.70;99.90;;;;;;5013941;28;20046;-72
2022/08/29 04:26:15;;;;;;;8.82;2.83;;;15.70;99.90;;;;;;5014773;28;20027;-73
2022/08/29 04:28:41;;;;;;;9.88;2.92;;;15.70;99.90;;;;;;5013862;28;20026;-71
2022/08/29 04:31:11;;;;;;;12.23;4.28;;;15.70;99.90;;;;;;5013268;28;20037;-71
2022/08/29 04:33:37;;;;;;;10.88;3.20;;;15.70;99.90;;;;;;5014712;28;20036;-70
2022/08/29 04:36:04;;;;;;;4.50;2.80;;;15.70;99.90;;;;;;5014479;28;20037;-72
2022/08/29 04:38:31;;;;;;;15.88;2.70;;;15.70;99.90;;;;;;5013592;28;20050;-70
2022/08/29 04:40:56;;;;;;;27.95;3.65;;;15.80;99.90;;;;;;5012045;28;20030;-70
2022/08/29 04:43:23;;;;;;;13.10;3.20;;;15.80;99.90;;;;;;5012453;28;20046;-71
2022/08/29 04:45:55;;;;;;;10.35;3.38;;;15.90;99.90;;;;;;5014285;28;20030;-71
2022/08/29 04:48:20;;;;;;;10.63;3.03;;;15.80;99.90;;;;;;5014273;28;20144;-70
2022/08/29 04:50:55;;;;;;;8.43;3.90;;;15.80;99.90;;;;;;5014187;28;20511;-72
2022/08/29 04:53:22;;;;;;;8.60;4.05;;;15.80;99.90;;;;;;5012741;28;20048;-74
2022/08/29 04:56:02;;;;;;;9.00;3.38;;;15.80;99.90;;;;;;5009475;28;20057;-70
2022/08/29 04:58:28;;;;;;;25.02;4.75;;;15.80;99.90;;;;;;5013229;28;20021;-71
2022/08/29 05:00:54;;;;;;;16.48;4.15;;;15.80;99.90;;;;;;5012074;28;20042;-70
2022/08/29 05:03:22;;;;;;;9.48;3.72;;;15.90;99.90;;;;;;5012938;28;20066;-72
2022/08/29 05:05:56;;;;;;;7.47;2.60;;;15.80;99.90;;;;;;5012584;28;20025;-72
2022/08/29 05:08:22;;;;;;;12.57;3.27;;;15.90;99.90;;;;;;5011685;28;20033;-72
2022/08/29 05:10:47;;;;;;;14.20;4.32;;;15.90;99.90;;;;;;5012845;28;20297;-72
2022/08/29 05:13:13;;;;;;;8.23;2.83;;;15.90;99.90;;;;;;5011542;28;20488;-72
2022/08/29 05:15:39;;;;;;;9.80;3.33;;;15.90;99.90;;;;;;5012241;28;20022;-70
2022/08/29 05:18:05;;;;;;;6.07;2.97;;;15.90;99.90;;;;;;5012604;28;21143;-72
2022/08/29 05:20:31;;;;;;;9.80;4.05;;;15.90;99.90;;;;;;5013543;28;20041;-71
2022/08/29 05:22:57;;;;;;;13.43;3.85;;;16.00;99.90;;;;;;5013517;28;20045;-70
2022/08/29 05:25:24;;;;;;;7.18;3.47;;;16.00;99.90;;;;;;5012248;28;20017;-70
2022/08/29 05:27:51;;;;;;;10.95;3.55;;;16.00;99.90;;;;;;5010412;28;20037;-71
2022/08/29 05:30:18;;;;;;;30.00;3.33;;;16.10;99.90;;;;;;5009543;28;20038;-70
2022/08/29 05:32:43;;;;;;;9.05;3.13;;;16.10;99.90;;;;;;5011602;28;20093;-70
2022/08/29 05:35:09;;;;;;;16.25;4.03;;;16.00;99.90;;;;;;5012174;28;20044;-69
2022/08/29 05:37:35;;;;;;;12.15;3.60;;;16.10;99.90;;;;;;5012546;28;20080;-71
2022/08/29 05:40:02;;;;;;;5.80;2.97;;;16.10;99.90;;;;;;5012240;28;20018;-71
2022/08/29 05:42:29;;;;;;;12.55;3.70;;;16.20;99.90;;;;;;5011627;28;20117;-70
2022/08/29 05:44:55;;;;;;;5.28;2.58;;;16.20;99.90;;;;;;5010690;28;20026;-72
2022/08/29 05:47:22;;;;;;;18.48;4.65;;;16.20;99.90;;;;;;5011956;28;20017;-68
2022/08/29 05:49:48;;;;;;;6.30;2.90;;;16.30;99.90;;;;;;5012874;28;20076;-71
2022/08/29 05:52:22;;;;;;;11.00;2.85;;;16.20;99.90;;;;;;5012452;28;20494;-70
2022/08/29 05:54:49;;;;;;;9.93;3.20;;;16.30;99.90;;;;;;5011041;28;20030;-72
2022/08/29 05:57:20;;;;;;;15.40;3.70;;;16.30;99.90;;;;;;5013299;28;20132;-70
2022/08/29 05:59:51;;;;;;;9.27;3.47;;;16.30;99.90;;;;;;5012894;28;20022;-70
2022/08/29 06:02:18;;;;;;;10.27;3.25;;;16.30;99.90;;;;;;5012500;28;20034;-72
2022/08/29 06:04:48;;;;;;;5.90;3.13;;;16.30;99.90;;;;;;5009238;28;20397;-70
2022/08/29 06:07:14;;;;;;;11.20;3.63;;;16.30;99.90;;;;;;5010804;28;20504;-71
2022/08/29 06:09:42;;;;;;;11.63;3.28;;;16.40;99.90;;;;;;5010621;28;20039;-71
2022/08/29 06:12:09;;;;;;;4.55;2.53;;;16.40;99.90;;;;;;5011604;28;20022;-71
2022/08/29 06:14:34;;;;;;;12.57;2.63;;;16.40;99.90;;;;;;5011440;28;20026;-70
2022/08/29 06:17:02;;;;;;;7.63;3.47;;;16.50;99.90;;;;;;5012320;28;20085;-72
2022/08/29 06:19:30;;;;;;;8.77;3.35;;;16.50;99.90;;;;;;5011599;28;20033;-69
2022/08/29 06:21:56;;;;;;;14.77;2.40;;;16.50;99.90;;;;;;5010531;28;20034;-70
2022/08/29 06:24:21;;;;;;;18.00;4.18;;;16.60;99.90;;;;;;5011792;28;20042;-72
2022/08/29 06:26:48;;;;;;;9.25;3.47;;;16.60;99.90;;;;;;5012456;28;20030;-70
2022/08/29 06:29:14;;;;;;;11.43;3.20;;;16.70;99.90;;;;;;5012441;28;20089;-71
2022/08/29 06:31:40;;;;;;;3.47;2.78;;;16.70;99.90;;;;;;5012281;28;20018;-68
2022/08/29 06:34:06;;;;;;;10.15;3.65;;;16.80;99.90;;;;;;5011780;28;20034;-71
2022/08/29 06:36:33;;;;;;;15.07;3.53;;;16.90;99.90;;;;;;5011863;28;20026;-70
2022/08/29 06:39:02;;;;;;;5.90;3.45;;;16.90;99.90;;;;;;5010396;28;20117;-70
2022/08/29 06:41:28;;;;;;;4.78;2.72;;;16.80;99.90;;;;;;5011043;28;20050;-70
2022/08/29 06:43:55;;;;;;;11.40;3.78;;;16.80;99.90;;;;;;5011255;28;20034;-70
2022/08/29 06:46:27;;;;;;;8.25;3.08;;;16.90;99.90;;;;;;5012091;28;20022;-71
2022/08/29 06:48:54;;;;;;;11.88;3.85;;;16.90;99.90;;;;;;5010651;28;20089;-70
2022/08/29 06:51:21;;;;;;;8.90;4.07;;;16.90;99.90;;;;;;5010379;28;20034;-70
2022/08/29 06:53:46;;;;;;;6.00;3.25;;;17.00;99.90;;;;;;5006679;28;20090;-69
2022/08/29 06:56:13;;;;;;;6.93;3.13;;;17.10;99.90;;;;;;5009852;28;20062;-71
2022/08/29 06:58:39;;;;;;;13.57;3.88;;;17.20;99.90;;;;;;5009956;28;20050;-69
2022/08/29 07:01:07;;;;;;;9.70;3.05;;;17.30;99.90;;;;;;5008848;28;20044;-69
2022/08/29 07:03:33;;;;;;;6.45;2.80;;;17.40;99.90;;;;;;5008197;28;20038;-70
2022/08/29 07:05:59;;;;;;;7.57;2.75;;;17.50;99.90;;;;;;5011689;28;20046;-69
2022/08/29 07:08:25;;;;;;;10.32;3.90;;;17.60;99.90;;;;;;5011597;28;20018;-70
2022/08/29 07:10:50;;;;;;;8.10;2.63;;;17.70;99.90;;;;;;5010801;28;20046;-71
2022/08/29 07:13:17;;;;;;;8.07;3.53;;;17.80;99.90;;;;;;5012484;28;20030;-69
2022/08/29 07:15:42;;;;;;;8.98;3.53;;;17.80;99.90;;;;;;5010494;28;20032;-69
2022/08/29 07:18:08;;;;;;;8.98;2.95;;;17.90;99.90;;;;;;5009795;28;20073;-69
2022/08/29 07:20:33;;;;;;;7.07;3.50;;;17.90;99.90;;;;;;5011176;28;20026;-69
2022/08/29 07:22:59;;;;;;;5.00;3.33;;;18.00;99.90;;;;;;5011245;28;20034;-70
2022/08/29 07:25:26;;;;;;;8.15;2.88;;;18.00;99.90;;;;;;5011348;28;20117;-70
2022/08/29 07:27:52;;;;;;;8.75;2.92;;;18.10;99.90;;;;;;5010426;28;20537;-70
2022/08/29 07:30:19;;;;;;;6.90;3.35;;;18.10;99.90;;;;;;5011450;28;20136;-69
2022/08/29 07:32:45;;;;;;;8.07;1.83;;;18.10;99.90;;;;;;5011384;28;20031;-69
2022/08/29 07:35:12;;;;;;;10.38;2.20;;;18.00;99.90;;;;;;5010964;28;20027;-71
2022/08/29 07:37:38;;;;;;;6.50;2.45;;;18.20;99.90;;;;;;5010157;28;20022;-70
2022/08/29 07:40:05;;;;;;;8.38;2.28;;;18.20;99.90;;;;;;5010403;28;20029;-69
2022/08/29 07:42:34;;;;;;;12.82;2.05;;;18.20;99.90;;;;;;5010673;28;20030;-70
2022/08/29 07:44:59;;;;;;;15.02;2.60;;;18.20;99.90;;;;;;5011050;28;20073;-68
2022/08/29 07:47:26;;;;;;;3.08;1.73;;;18.30;99.90;;;;;;5006031;28;20023;-71
2022/08/29 07:49:52;;;;;;;4.50;1.77;;;18.30;99.90;;;;;;5011464;28;20092;-71
2022/08/29 07:52:23;;;;;;;4.70;1.83;;;18.30;99.90;;;;;;5011153;28;20022;-71
2022/08/29 07:54:48;;;;;;;3.47;0.82;;;18.40;99.90;;;;;;5011545;28;20037;-70
2022/08/29 07:57:16;;;;;;;3.13;1.48;;;18.40;99.90;;;;;;5009479;28;20053;-71
2022/08/29 07:59:42;;;;;;;1.60;0.90;;;18.40;99.90;;;;;;5009107;28;20054;-69
2022/08/29 08:02:08;;;;;;;1.00;0.75;;;18.50;99.90;;;;;;5010546;28;20419;-69
2022/08/29 08:04:33;;;;;;;1.88;0.60;;;18.50;99.90;;;;;;5010925;28;20131;-69
2022/08/29 08:06:59;;;;;;;0.82;0.70;;;18.50;99.90;;;;;;5010642;28;20069;-69
2022/08/29 08:09:25;;;;;;;0.60;0.50;;;18.60;99.90;;;;;;5010291;28;20608;-70
2022/08/29 08:11:52;;;;;;;1.55;0.73;;;18.70;99.90;;;;;;5010044;28;20085;-71
2022/08/29 08:14:19;;;;;;;2.15;0.75;;;18.90;99.90;;;;;;5011348;28;20030;-70
2022/08/29 08:16:44;;;;;;;1.38;0.88;;;19.00;99.90;;;;;;5013046;28;20026;-69
2022/08/29 08:19:12;;;;;;;1.10;0.60;;;19.10;99.90;;;;;;5008825;28;20062;-70
2022/08/29 08:21:38;;;;;;;0.73;0.50;;;19.20;99.90;;;;;;5012505;28;20021;-69
2022/08/29 08:24:04;;;;;;;0.82;0.38;;;19.20;99.90;;;;;;5013781;28;20058;-69
2022/08/29 08:26:29;;;;;;;0.77;0.47;;;19.30;99.90;;;;;;5009784;28;20030;-69
2022/08/29 08:28:56;;;;;;;0.93;0.85;;;19.50;99.90;;;;;;5013362;28;20030;-69
2022/08/29 08:31:21;;;;;;;5.90;0.63;;;19.50;99.90;;;;;;5013422;28;20021;-73
2022/08/29 08:33:47;;;;;;;2.30;0.50;;;19.50;99.90;;;;;;5013402;28;20026;-70
2022/08/29 08:36:24;;;;;;;3.45;0.95;;;19.50;99.90;;;;;;5012834;28;20086;-69
2022/08/29 08:38:51;;;;;;;0.73;0.40;;;19.60;99.90;;;;;;5012095;28;20034;-69
2022/08/29 08:41:26;;;;;;;0.88;0.55;;;19.80;99.90;;;;;;5012810;28;20109;-69
2022/08/29 08:43:53;;;;;;;1.73;0.60;;;19.90;99.90;;;;;;5014136;28;20048;-68
2022/08/29 08:46:34;;;;;;;1.02;0.73;;;20.00;99.90;;;;;;5012305;28;20105;-69
2022/08/29 08:49:05;;;;;;;0.98;0.65;;;20.10;99.90;;;;;;5001996;28;20022;-69
2022/08/29 08:51:34;;;;;;;0.60;0.43;;;20.10;99.90;;;;;;5013556;28;20026;-70
2022/08/29 08:54:03;;;;;;;0.68;0.55;;;20.10;99.90;;;;;;5012467;28;20022;-67
2022/08/29 08:56:40;;;;;;;1.73;0.93;;;20.00;99.90;;;;;;5013599;28;20034;-69
2022/08/29 08:59:27;;;;;;;1.75;0.93;;;20.10;99.90;;;;;;5011576;28;20074;-68
2022/08/29 09:02:13;;;;;;;1.00;0.50;;;20.20;99.90;;;;;;5012754;28;20064;-67
2022/08/29 09:05:22;;;;;;;4.32;0.93;;;20.40;99.90;;;;;;5014089;28;20038;-68
2022/08/29 09:08:08;;;;;;;0.35;0.35;;;20.60;99.90;;;;;;5012502;28;20132;-69
2022/08/29 09:10:59;;;;;;;0.30;0.20;;;20.80;99.90;;;;;;5013242;28;20074;-68
2022/08/29 09:13:37;;;;;;;4.53;0.93;;;20.90;99.90;;;;;;5014033;28;20023;-68
2022/08/29 09:16:13;;;;;;;0.70;0.50;;;21.10;99.90;;;;;;5013566;28;20026;-69
2022/08/29 09:18:43;;;;;;;2.10;1.00;;;21.10;99.90;;;;;;5014123;28;20038;-70
2022/08/29 09:21:15;;;;;;;0.77;0.60;;;21.10;99.90;;;;;;5009839;28;20041;-68
2022/08/29 09:23:42;;;;;;;0.70;0.45;;;21.10;99.90;;;;;;5011210;28;20557;-71
2022/08/29 09:26:08;;;;;;;0.55;0.47;;;20.90;99.90;;;;;;5003919;28;20363;-67
2022/08/29 09:28:34;;;;;;;1.90;0.50;;;21.00;99.90;;;;;;5011131;28;20839;-68
2022/08/29 09:31:26;;;;;;;0.85;0.43;;;20.90;99.90;;;;;;5009618;28;20031;-70
2022/08/29 09:33:57;;;;;;;1.65;0.70;;;21.00;99.90;;;;;;5011321;28;20913;-70
2022/08/29 09:36:39;;;;;;;5.13;0.70;;;20.90;99.90;;;;;;5011032;28;20029;-71
2022/08/29 09:39:30;;;;;;;1.70;0.68;;;20.90;99.90;;;;;;5011771;28;20976;-69
2022/08/29 09:41:57;;;;;;;0.73;0.57;;;20.90;99.90;;;;;;5012674;28;20022;-71
2022/08/29 09:44:30;;;;;;;0.93;0.50;;;21.00;99.90;;;;;;5011685;28;20046;-69
2022/08/29 09:47:08;;;;;;;0.40;0.40;;;21.20;99.90;;;;;;5012898;28;20029;-70
2022/08/29 09:49:37;;;;;;;2.88;0.75;;;21.30;99.90;;;;;;5012337;28;20495;-69
2022/08/29 09:52:14;;;;;;;1.55;0.70;;;21.40;99.90;;;;;;5013085;28;20037;-69
2022/08/29 09:54:41;;;;;;;0.68;0.50;;;21.50;99.90;;;;;;5011932;28;20030;-68
2022/08/29 09:57:07;;;;;;;1.17;0.55;;;21.60;99.90;;;;;;5007705;28;20027;-70
2022/08/29 09:59:36;;;;;;;1.05;0.68;;;21.70;99.90;;;;;;5011661;28;20037;-70
2022/08/29 10:02:23;;;;;;;4.38;0.77;;;21.70;99.90;;;;;;5011457;28;20013;-71
2022/08/29 10:05:01;;;;;;;0.50;0.40;;;21.70;99.90;;;;;;5009432;28;20036;-71
2022/08/29 10:07:34;;;;;;;2.80;1.00;;;21.70;99.90;;;;;;5011702;28;20094;-71
2022/08/29 10:10:12;;;;;;;1.42;0.60;;;21.70;99.90;;;;;;5011570;28;20109;-70
2022/08/29 10:13:16;;;;;;;0.70;0.40;;;21.80;99.90;;;;;;5013106;28;20034;-68
2022/08/29 10:15:45;;;;;;;0.65;0.52;;;21.90;99.90;;;;;;5010885;28;20397;-70
2022/08/29 10:18:32;;;;;;;0.85;0.40;;;21.90;99.90;;;;;;5011305;28;20097;-70
2022/08/29 10:21:24;;;;;;;0.63;0.40;;;22.00;99.90;;;;;;5012148;28;20026;-71
2022/08/29 10:24:08;;;;;;;1.60;0.80;;;22.00;99.90;;;;;;5011435;28;20034;-69
2022/08/29 10:27:05;;;;;;;0.80;0.65;;;22.20;99.90;;;;;;5010020;28;20030;-71
2022/08/29 10:29:52;;;;;;;0.98;0.70;;;22.20;99.90;;;;;;5010341;28;20029;-69
2022/08/29 10:32:43;;;;;;;0.63;0.50;;;22.30;99.90;;;;;;5009439;28;20057;-71
2022/08/29 10:35:39;;;;;;;2.00;0.73;;;22.40;99.90;;;;;;5006812;28;20076;-69
2022/08/29 10:38:19;;;;;;;0.60;0.60;;;22.40;99.90;;;;;;5009072;28;20034;-72
2022/08/29 10:40:57;;;;;;;1.10;0.65;;;22.40;99.90;;;;;;5000972;28;20033;-69
2022/08/29 10:43:38;;;;;;;4.00;0.68;;;22.30;99.90;;;;;;5003196;28;20045;-71
2022/08/29 10:46:58;;;;;;;1.33;0.57;;;22.30;99.90;;;;;;5007854;28;20067;-69
2022/08/29 10:50:01;;;;;;;1.85;1.17;;;22.20;99.90;;;;;;5011652;28;20117;-73
2022/08/29 10:52:39;;;;;;;2.97;1.15;;;22.30;99.90;;;;;;5009846;28;20134;-70
2022/08/29 10:55:29;;;;;;;1.40;0.88;;;22.50;99.90;;;;;;5008787;28;20029;-70
2022/08/29 10:58:06;;;;;;;2.30;0.47;;;22.70;99.90;;;;;;5010220;28;20033;-69
2022/08/29 11:00:43;;;;;;;1.40;0.90;;;22.90;99.90;;;;;;5004295;28;20033;-70
2022/08/29 11:03:27;;;;;;;1.05;0.68;;;23.00;99.90;;;;;;5010675;28;20053;-71
2022/08/29 11:06:11;;;;;;;0.75;0.60;;;22.90;99.90;;;;;;5008016;28;20037;-70
2022/08/29 11:08:45;;;;;;;;;;;22.80;99.90;;;;;;5006785;28;20046;-71
2022/08/29 11:11:16;;;;;;;0.55;0.40;;;22.90;99.90;;;;;;5003415;28;19924;-70
2022/08/29 11:13:47;;;;;;;1.48;0.55;;;23.10;99.90;;;;;;5010681;28;20031;-71
2022/08/29 11:16:24;;;;;;;4.75;1.30;;;23.30;99.90;;;;;;5011220;28;20463;-71
2022/08/29 11:19:06;;;;;;;2.13;0.95;;;23.40;99.90;;;;;;5012013;28;20030;-71
2022/08/29 11:21:37;;;;;;;1.30;0.50;;;23.50;99.90;;;;;;5011692;28;20064;-70
2022/08/29 11:24:04;;;;;;;1.58;0.70;;;23.50;99.90;;;;;;5011051;28;20606;-69
2022/08/29 11:26:32;;;;;;;2.35;0.60;;;23.60;99.90;;;;;;5011663;28;20037;-70
2022/08/29 11:29:25;;;;;;;0.85;0.50;;;23.70;99.90;;;;;;5011636;28;20034;-70
2022/08/29 11:32:00;;;;;;;0.28;0.22;;;23.90;99.90;;;;;;5011051;28;20458;-70
2022/08/29 11:34:28;;;;;;;0.88;0.55;;;24.10;99.90;;;;;;5011089;28;20026;-70
2022/08/29 11:37:24;;;;;;;0.70;0.30;;;24.10;99.90;;;;;;5010666;28;20030;-69
2022/08/29 11:39:57;;;;;;;2.80;0.85;;;24.20;99.90;;;;;;5011942;28;20038;-68
2022/08/29 11:42:28;;;;;;;2.92;0.45;;;24.30;99.90;;;;;;5011198;28;20026;-70
2022/08/29 11:44:57;;;;;;;1.10;0.73;;;24.20;99.90;;;;;;5011370;28;20395;-69
2022/08/29 11:47:35;;;;;;;0.80;0.50;;;24.10;99.90;;;;;;5012152;28;20022;-69
2022/08/29 11:50:16;;;;;;;0.80;0.45;;;24.20;99.90;;;;;;5014932;28;20034;-68
2022/08/29 11:52:53;;;;;;;1.55;0.60;;;24.10;99.90;;;;;;5015747;28;20042;-69
2022/08/29 11:55:29;;;;;;;6.68;0.60;;;24.20;99.90;;;;;;5015135;28;20022;-70
2022/08/29 11:58:15;;;;;;;2.03;0.63;;;24.20;99.90;;;;;;5015207;28;20022;-69
2022/08/29 12:00:47;;;;;;;1.05;0.30;;;24.00;99.90;;;;;;5006282;28;20041;-69
2022/08/29 12:03:31;;;;;;;2.03;0.40;;;23.90;99.90;;;;;;5014536;28;20033;-69
2022/08/29 12:06:19;;;;;;;1.10;0.60;;;23.80;99.90;;;;;;5010956;28;20038;-70
2022/08/29 12:09:00;;;;;;;0.28;0.28;;;23.80;99.90;;;;;;5009878;28;20053;-68
2022/08/29 12:12:09;;;;;;;3.35;0.50;;;23.90;99.90;;;;;;5011874;28;21055;-68
2022/08/29 12:14:35;;;;;;;1.00;0.57;;;24.10;99.90;;;;;;5005089;28;20375;-69
2022/08/29 12:17:05;;;;;;;0.60;0.47;;;24.20;99.90;;;;;;5013773;28;20030;-68
2022/08/29 12:19:50;;;;;;;0.68;0.50;;;24.20;99.90;;;;;;5012805;28;20395;-69
2022/08/29 12:22:50;;;;;;;0.68;0.52;;;24.40;99.90;;;;;;5013895;28;20034;-72
2022/08/29 12:25:22;;;;;;;2.72;0.85;;;24.80;99.90;;;;;;5012983;28;20402;-71
2022/08/29 12:28:26;;;;;;;1.58;0.65;;;25.10;99.90;;;;;;5015268;28;20034;-71
2022/08/29 12:30:58;;;;;;;0.80;0.43;;;25.50;99.90;;;;;;5014493;28;20050;-70
2022/08/29 12:33:55;;;;;;;0.73;0.50;;;25.70;99.90;;;;;;5014176;28;20101;-70
2022/08/29 12:36:56;;;;;;;0.45;0.30;;;25.90;99.90;;;;;;5014897;28;20029;-70
2022/08/29 12:39:53;;;;;;;7.40;0.68;;;25.80;99.90;;;;;;4992387;28;20128;-69
2022/08/29 12:42:34;;;;;;;0.52;0.43;;;25.90;99.90;;;;;;5014298;28;20030;-66
2022/08/29 12:45:11;;;;;;;6.68;0.60;;;26.10;99.90;;;;;;5013507;28;20042;-73
2022/08/29 12:47:40;;;;;;;0.20;0.20;;;26.40;99.90;;;;;;5014368;28;20022;-71
2022/08/29 12:50:16;;;;;;;2.50;0.45;;;26.80;99.90;;;;;;5014278;28;20027;-69
2022/08/29 12:52:42;;;;;;;0.20;0.13;;;27.00;99.90;;;;;;5012723;28;20038;-68
2022/08/29 12:55:18;;;;;;;1.33;0.50;;;27.10;99.90;;;;;;5012589;28;20623;-70
2022/08/29 12:57:46;;;;;;;0.80;0.45;;;27.20;99.90;;;;;;5012172;28;20041;-70
2022/08/29 13:00:21;;;;;;;7.75;0.73;;;27.10;99.90;;;;;;5011450;28;20029;-69
2022/08/29 13:02:57;;;;;;;0.35;0.25;;;27.00;99.90;;;;;;5012923;28;20019;-70
2022/08/29 13:05:25;;;;;;;1.48;0.50;;;26.90;99.90;;;;;;5014281;28;20044;-75
2022/08/29 13:07:55;;;;;;;0.20;0.20;;;26.90;99.90;;;;;;5013284;28;20019;-72
2022/08/29 13:10:21;;;;;;;0.22;0.15;;;26.80;99.90;;;;;;5012389;28;20383;-71